Featured Flight

MET3002 - Chicago to Detroit

Boeing 737-200
711MT
0 hrs 45 mins
199 nm
Scheduled - Daily

Bid/PiRep Status

Bid was submitted on Dec 28 2016.

PiRep # 74494: Approved by Dave Nichols on December 30th, 2016 7:54 UTC

Departure

Departing from
Chicago (MDW)
Departure gate
Scheduled Departure
GMT 1330
Local 0830
METAR KMDW 280153Z 03007KT 10SM OVC016 06/04 A2996 RMK AO2 SLP149 T00610039
TAF KMDW 280108Z 2801/2824 05008KT P6SM SCT009 OVC013 FM280800 01010KT 6SM BR OVC009 FM281600 02011KT P6SM OVC012 FM282000 03011KT P6SM BKN020

Route Map

Planning Resources

KMDW-GIJ-LFD-DXQ-MDTW
CISRO2.GIJ LFD.MIZAR3
KMDW MDW4 LEWKE GIJ LFD MIZAR3 KDTW
KMDW GIJ J554 CRL KDTW
KMDW-GIJ-BENJO-CRL-KDTW
Route:
OFP Layout:
Units:
Detailed Navlog:
ETOPS Planning:
Plan Stepclimbs:
Runway Analysis:
Include NOTAMS:
FIR NOTAMS:
Flight Maps:

Popularity

Hub Current Bids PiReps this month Total PiReps
KMCI 0 0 3
KLAX 0 0 0
KBOS 0 0 0